Time;durP1;ratioP1;P1;durP2;ratioP2;P2;SDS_P1;SDS_P2;PMS_P1;PMS_P2;Temp;Humidity;BMP_temperature;BMP_pressure;BME280_temperature;BME280_humidity;BME280_pressure;Samples;Min_cycle;Max_cycle;Signal;HPM_P1;HPM_P2
2022/12/15 00:39:31;;;;;;;50.03;45.58;;;;;;;-8.63;100.00;100757.31;5103012;29;20396;-62
2022/12/15 00:42:02;;;;;;;49.00;43.25;;;;;;;-8.73;100.00;100751.25;5102427;29;20136;-62
2022/12/15 00:44:32;;;;;;;48.30;43.38;;;;;;;-8.75;100.00;100754.00;5102596;29;20499;-62
2022/12/15 00:47:03;;;;;;;50.17;44.75;;;;;;;-8.77;100.00;100755.09;5102510;29;20154;-62
2022/12/15 01:20:33;;;;;;;51.53;46.38;;;;;;;-8.78;100.00;100769.97;5106215;29;20090;-62
2022/12/15 01:23:03;;;;;;;51.70;46.17;;;;;;;-8.79;100.00;100772.72;5105320;29;20031;-62
2022/12/15 01:25:38;;;;;;;50.60;45.70;;;;;;;-8.83;100.00;100771.34;5105978;29;20106;-62
2022/12/15 01:28:08;;;;;;;49.40;44.40;;;;;;;-8.90;100.00;100771.88;5106123;29;20039;-61
2022/12/15 01:30:39;;;;;;;54.90;49.63;;;;;;;-8.93;100.00;100776.53;5105648;29;20433;-62
2022/12/15 01:33:09;;;;;;;51.45;46.40;;;;;;;-8.95;100.00;100774.03;5105466;29;20062;-62
2022/12/15 01:35:40;;;;;;;49.08;43.97;;;;;;;-8.97;100.00;100775.16;5105637;29;20031;-62
2022/12/15 01:38:10;;;;;;;51.33;44.92;;;;;;;-9.09;100.00;100739.59;5105655;29;20023;-62
2022/12/15 01:40:50;;;;;;;52.13;47.28;;;;;;;-8.89;100.00;100773.53;5105610;29;20031;-62
2022/12/15 01:43:24;;;;;;;51.47;46.42;;;;;;;-8.86;100.00;100781.09;5105057;29;20027;-62
2022/12/15 01:46:01;;;;;;;52.00;46.85;;;;;;;-8.86;100.00;100775.88;5088404;29;20055;-62
2022/12/15 01:48:45;;;;;;;50.72;43.65;;;;;;;-8.86;100.00;100778.50;5105466;29;20043;-62
2022/12/15 01:51:21;;;;;;;53.30;46.90;;;;;;;-8.85;100.00;100789.78;5105134;29;20114;-61
2022/12/15 01:53:54;;;;;;;51.28;45.83;;;;;;;-8.87;100.00;100789.91;5105060;29;20032;-62
2022/12/15 01:56:27;;;;;;;50.65;45.60;;;;;;;-8.88;100.00;100796.09;5105297;29;20031;-61
2022/12/15 01:59:00;;;;;;;49.92;45.00;;;;;;;-8.86;100.00;100795.97;5105412;29;20224;-62
2022/12/15 02:01:30;;;;;;;55.70;50.03;;;;;;;-8.88;100.00;100798.72;5105238;29;20399;-62
2022/12/15 02:04:02;;;;;;;48.85;44.10;;;;;;;-8.89;100.00;100797.06;5104493;29;20023;-62
2022/12/15 02:06:32;;;;;;;54.30;48.38;;;;;;;-8.90;100.00;100803.25;5105044;29;20062;-61
2022/12/15 02:09:03;;;;;;;46.78;42.47;;;;;;;-8.90;100.00;100802.44;5105221;29;20058;-61
2022/12/15 02:12:06;;;;;;;53.50;48.13;;;;;;;-8.90;100.00;100808.50;5104944;29;20027;-62
2022/12/15 02:14:43;;;;;;;49.40;44.50;;;;;;;-8.94;100.00;100812.34;5066424;29;20063;-61
2022/12/15 02:17:28;;;;;;;49.05;44.20;;;;;;;-8.94;100.00;100821.97;5104994;29;20024;-62
2022/12/15 02:20:16;;;;;;;49.60;44.42;;;;;;;-8.92;100.00;100820.03;5104845;29;20437;-62
2022/12/15 02:23:17;;;;;;;48.15;43.40;;;;;;;-8.87;100.00;100816.09;5146178;23;20054;-82
2022/12/15 02:26:25;;;;;;;49.55;44.50;;;;;;;-8.86;100.00;100819.53;5131569;29;20110;-82
2022/12/15 02:29:39;;;;;;;48.53;41.78;;;;;;;-8.84;100.00;100816.78;5134948;29;20405;-82
2022/12/15 02:32:13;;;;;;;49.17;43.97;;;;;;;-9.08;100.00;100797.00;5120016;29;20035;-82
2022/12/15 02:35:02;;;;;;;50.65;42.45;;;;;;;-9.00;100.00;100805.03;5135087;28;20027;-82
2022/12/15 02:37:36;;;;;;;47.20;42.47;;;;;;;-9.12;100.00;100787.75;5136957;29;20493;-82
2022/12/15 02:40:09;;;;;;;47.35;42.65;;;;;;;-9.24;100.00;100773.13;5137069;29;20031;-82
2022/12/15 02:42:46;;;;;;;51.72;45.03;;;;;;;-8.98;100.00;100818.81;5135526;29;20361;-82
2022/12/15 02:45:35;;;;;;;47.20;42.42;;;;;;;-9.26;100.00;100780.28;5137373;28;20083;-82
2022/12/15 02:48:20;;;;;;;47.65;42.83;;;;;;;-9.03;100.00;100812.31;5136644;29;20489;-82
2022/12/15 02:51:18;;;;;;;46.85;42.10;;;;;;;-8.98;100.00;100818.81;5136678;29;20091;-83
2022/12/15 02:54:05;;;;;;;48.15;41.40;;;;;;;-9.05;100.00;100817.66;5136016;28;20050;-82
2022/12/15 02:56:43;;;;;;;45.75;41.35;;;;;;;-9.03;100.00;100839.28;5136502;29;20031;-83
2022/12/15 02:59:41;;;;;;;45.95;41.78;;;;;;;-9.11;100.00;100830.44;5119871;29;20019;-83
2022/12/15 03:02:13;;;;;;;42.92;38.65;;;;;;;-9.16;100.00;100828.22;5119007;29;20054;-83
2022/12/15 03:04:44;;;;;;;48.08;43.88;;;;;;;-9.12;100.00;100847.91;5134940;28;20035;-83
2022/12/15 03:07:15;;;;;;;46.75;41.78;;;;;;;-9.16;100.00;100836.06;5135961;29;20055;-83
2022/12/15 03:09:45;;;;;;;48.35;43.67;;;;;;;-9.11;100.00;100852.19;5119443;29;20027;-83
2022/12/15 03:12:15;;;;;;;45.50;41.13;;;;;;;-9.13;100.00;100838.41;5118620;29;20086;-83
2022/12/15 03:14:46;;;;;;;48.55;43.70;;;;;;;-9.25;100.00;100821.16;5136337;28;20047;-83
2022/12/15 03:17:16;;;;;;;46.63;42.45;;;;;;;-9.26;100.00;100820.31;5136585;29;20019;-83
2022/12/15 03:19:47;;;;;;;43.35;38.97;;;;;;;-9.34;100.00;100812.28;5118906;29;20066;-81
2022/12/15 03:22:17;;;;;;;48.75;44.15;;;;;;;-9.46;100.00;100791.56;5136489;29;20037;-82
2022/12/15 03:24:47;;;;;;;43.97;40.20;;;;;;;-9.15;100.00;100840.31;5136209;28;20031;-82
2022/12/15 03:27:18;;;;;;;46.80;42.08;;;;;;;-9.19;100.00;100820.63;5134956;28;20042;-82
2022/12/15 03:29:48;;;;;;;44.53;40.03;;;;;;;-9.07;100.00;100856.22;5135048;29;20031;-83
2022/12/15 03:32:19;;;;;;;48.97;43.80;;;;;;;-9.59;100.00;100758.66;5135404;29;20058;-83
2022/12/15 03:34:49;;;;;;;50.45;45.38;;;;;;;-9.26;100.00;100824.72;5135660;28;20051;-83
2022/12/15 03:37:19;;;;;;;43.85;39.88;;;;;;;-9.16;100.00;100837.84;5134813;29;20020;-84
2022/12/15 03:39:50;;;;;;;46.83;41.53;;;;;;;-9.07;100.00;100848.34;5135423;29;20051;-83
2022/12/15 03:42:47;;;;;;;41.13;37.45;;;;;;;-9.04;100.00;100842.88;5135030;29;20027;-84
2022/12/15 03:45:10;;;;;;;46.67;41.72;;;;;;;-9.50;100.00;100790.16;5135194;28;20099;-83
2022/12/15 03:47:41;;;;;;;44.60;39.97;;;;;;;-9.16;100.00;100817.75;5135525;29;20051;-83
2022/12/15 03:50:14;;;;;;;48.50;38.05;;;;;;;-9.12;100.00;100823.53;5118659;29;20421;-83
2022/12/15 03:52:50;;;;;;;45.03;39.33;;;;;;;-9.18;100.00;100830.13;5134333;29;20026;-83
2022/12/15 03:55:21;;;;;;;41.70;38.30;;;;;;;-9.59;100.00;100795.22;5135711;28;20027;-83
2022/12/15 03:57:51;;;;;;;41.13;37.08;;;;;;;-9.12;100.00;100841.84;5118738;29;20019;-83
2022/12/15 04:00:25;;;;;;;46.95;42.35;;;;;;;-9.60;100.00;100772.66;5118491;29;20058;-83
2022/12/15 04:02:56;;;;;;;43.05;38.88;;;;;;;-9.17;100.00;100834.38;5135193;29;20114;-83
2022/12/15 04:05:32;;;;;;;44.78;40.38;;;;;;;-9.24;100.00;100820.19;5119272;29;20059;-83
2022/12/15 04:08:03;;;;;;;48.42;43.63;;;;;;;-9.11;100.00;100841.72;5135104;29;20027;-83
2022/12/15 04:10:34;;;;;;;44.97;39.47;;;;;;;-9.26;100.00;100830.78;5139007;29;20031;-83
2022/12/15 04:13:07;;;;;;;55.78;41.50;;;;;;;-9.12;100.00;100858.38;5140447;29;20145;-83
2022/12/15 04:15:39;;;;;;;46.28;41.83;;;;;;;-9.15;100.00;100870.88;5139359;28;20327;-82
2022/12/15 04:18:10;;;;;;;49.10;44.03;;;;;;;-9.57;100.00;100810.78;5140355;29;20027;-83
2022/12/15 04:20:40;;;;;;;42.75;38.33;;;;;;;-9.48;100.00;100838.75;5137896;29;20027;-83
2022/12/15 04:23:10;;;;;;;46.97;41.92;;;;;;;-9.39;100.00;100843.22;5138127;28;20493;-83
2022/12/15 05:33:36;;;;;;;37.70;33.67;;;;;;;-9.39;100.00;100885.06;5139772;28;20046;-82
2022/12/15 05:36:07;;;;;;;46.15;35.70;;;;;;;-9.33;100.00;100907.25;5140207;29;20019;-82
2022/12/15 05:38:37;;;;;;;41.75;37.72;;;;;;;-9.58;100.00;100866.63;5139879;29;20103;-81
2022/12/15 05:41:07;;;;;;;40.60;36.45;;;;;;;-9.30;100.00;100914.84;5139547;29;20023;-82
2022/12/15 05:43:38;;;;;;;42.80;38.50;;;;;;;-9.29;100.00;100906.03;5138976;28;20027;-82
2022/12/15 05:46:08;;;;;;;43.47;39.40;;;;;;;-9.28;100.00;100899.84;5135977;29;20046;-82
2022/12/15 05:48:39;;;;;;;44.33;39.53;;;;;;;-9.72;100.00;100833.78;5135475;29;20034;-84
2022/12/15 05:51:11;;;;;;;46.63;42.15;;;;;;;-9.51;100.00;100872.97;5120475;29;20029;-84
2022/12/15 05:53:41;;;;;;;43.38;38.40;;;;;;;-9.18;100.00;100928.66;5136729;28;20031;-83
2022/12/15 05:56:13;;;;;;;41.95;37.72;;;;;;;-9.20;100.00;100908.69;5119677;29;20026;-84
2022/12/15 05:58:43;;;;;;;40.90;36.83;;;;;;;-9.64;100.00;100854.88;5136338;28;20028;-84
2022/12/15 06:01:17;;;;;;;42.92;38.65;;;;;;;-9.43;100.00;100867.97;5137004;29;20051;-84
2022/12/15 06:03:47;;;;;;;45.03;40.33;;;;;;;-9.49;100.00;100875.47;5136722;28;20023;-86
2022/12/15 06:06:18;;;;;;;41.55;37.47;;;;;;;-9.22;100.00;100920.25;5119985;29;20035;-85
2022/12/15 06:08:49;;;;;;;45.38;40.78;;;;;;;-9.21;100.00;100912.28;5117010;29;20067;-85
2022/12/15 06:11:21;;;;;;;45.90;41.35;;;;;;;-9.41;100.00;100892.19;5115511;29;20441;-84
2022/12/15 06:13:54;;;;;;;39.47;35.63;;;;;;;-9.42;100.00;100898.38;5116151;29;20482;-85
2022/12/15 06:16:26;;;;;;;43.17;39.00;;;;;;;-9.45;100.00;100874.25;5115307;29;20047;-83
2022/12/15 06:19:00;;;;;;;37.47;33.80;;;;;;;-9.17;100.00;100910.22;5114874;29;20020;-85
2022/12/15 06:21:36;;;;;;;42.38;35.50;;;;;;;-9.12;100.00;100909.84;5118058;29;20209;-84
2022/12/15 06:24:07;;;;;;;38.60;34.60;;;;;;;-9.32;100.00;100877.53;5121210;29;20035;-85
2022/12/15 06:26:39;;;;;;;45.88;41.15;;;;;;;-9.11;100.00;100912.34;5120301;29;20030;-85
2022/12/15 06:29:10;;;;;;;42.58;38.10;;;;;;;-9.38;100.00;100891.09;5121175;29;20032;-86
2022/12/15 06:31:41;;;;;;;42.83;38.67;;;;;;;-9.47;100.00;100866.53;5120841;29;20046;-84
2022/12/15 06:34:14;;;;;;;36.47;33.22;;;;;;;-10.15;100.00;100759.91;5114829;29;20031;-84
2022/12/15 06:36:45;;;;;;;49.75;45.30;;;;;;;-9.50;100.00;100873.81;5141551;29;20023;-84
2022/12/15 06:39:15;;;;;;;42.80;39.10;;;;;;;-9.34;100.00;100889.91;5139135;29;20400;-84
2022/12/15 06:41:46;;;;;;;41.22;37.28;;;;;;;-9.24;100.00;100907.28;5136001;29;20051;-83
2022/12/15 06:44:16;;;;;;;41.22;37.17;;;;;;;-9.25;100.00;100917.91;5137523;28;20047;-83
2022/12/15 06:46:47;;;;;;;39.70;35.95;;;;;;;-9.25;100.00;100912.69;5137398;29;20038;-84
2022/12/15 06:49:17;;;;;;;37.35;34.13;;;;;;;-9.53;100.00;100861.84;5138334;29;20034;-84
2022/12/15 06:51:49;;;;;;;46.30;41.55;;;;;;;-9.45;100.00;100871.66;5121062;29;20029;-84
2022/12/15 06:54:19;;;;;;;39.25;35.22;;;;;;;-9.29;100.00;100896.41;5138400;28;20031;-84
2022/12/15 06:56:50;;;;;;;42.85;38.90;;;;;;;-9.23;100.00;100903.72;5143956;29;20576;-84
2022/12/15 06:59:20;;;;;;;40.92;36.53;;;;;;;-9.30;100.00;100893.94;5142815;29;20033;-84
2022/12/15 07:01:51;;;;;;;38.33;34.70;;;;;;;-9.25;100.00;100897.00;5137276;29;20035;-84
2022/12/15 07:04:21;;;;;;;39.72;34.92;;;;;;;-9.73;100.00;100831.28;5137707;28;20393;-85
2022/12/15 07:06:52;;;;;;;40.10;36.38;;;;;;;-10.02;100.00;100794.50;5137703;29;20028;-85
2022/12/15 07:09:24;;;;;;;43.67;38.88;;;;;;;-9.34;100.00;100902.97;5136568;28;20067;-85
2022/12/15 07:11:55;;;;;;;44.25;39.78;;;;;;;-9.47;100.00;100876.19;5134707;29;20437;-83
2022/12/15 07:14:26;;;;;;;44.97;40.53;;;;;;;-9.76;100.00;100834.97;5134838;28;20047;-85
2022/12/15 07:16:56;;;;;;;42.97;38.45;;;;;;;-9.75;100.00;100817.50;5136716;29;20405;-84
2022/12/15 07:19:27;;;;;;;39.00;35.38;;;;;;;-9.17;100.00;100909.41;5120165;29;20505;-84
2022/12/15 07:21:58;;;;;;;43.03;38.42;;;;;;;-9.79;100.00;100822.16;5122593;29;20023;-84
2022/12/15 07:24:29;;;;;;;39.72;36.03;;;;;;;-9.13;100.00;100943.03;5150659;28;20016;-86
2022/12/15 07:26:59;;;;;;;40.53;36.42;;;;;;;-10.07;100.00;100805.31;5134014;28;20030;-85
2022/12/15 07:29:29;;;;;;;36.33;32.83;;;;;;;-9.13;100.00;100943.03;5150930;28;20015;-84
2022/12/15 07:32:00;;;;;;;43.00;38.63;;;;;;;-9.55;100.00;100864.59;5150153;28;20018;-85
2022/12/15 07:34:30;;;;;;;42.83;38.63;;;;;;;-9.23;100.00;100903.72;5142438;28;20027;-85
2022/12/15 07:37:01;;;;;;;40.47;36.67;;;;;;;-9.77;100.00;100820.25;5143650;28;20031;-84
2022/12/15 07:39:31;;;;;;;38.05;34.20;;;;;;;-9.68;100.00;100831.75;5147671;29;20071;-84
2022/12/15 07:42:02;;;;;;;39.20;35.53;;;;;;;-9.23;100.00;100915.97;5145731;29;20031;-84
2022/12/15 07:44:32;;;;;;;39.53;35.65;;;;;;;-9.63;100.00;100855.72;5147287;28;20165;-85
2022/12/15 07:47:03;;;;;;;42.42;38.10;;;;;;;-10.30;100.00;100746.34;5130346;29;20040;-84
2022/12/15 07:49:33;;;;;;;43.28;38.78;;;;;;;-9.77;100.00;100854.22;5144173;29;20030;-84
2022/12/15 07:52:03;;;;;;;43.58;39.38;;;;;;;-9.29;100.00;100911.28;5141283;29;20106;-85
2022/12/15 07:54:34;;;;;;;39.15;35.30;;;;;;;-9.62;100.00;100839.06;5128365;29;20027;-85
2022/12/15 07:57:06;;;;;;;41.58;37.22;;;;;;;-8.84;100.00;100942.38;5141364;29;20059;-85
2022/12/15 07:59:36;;;;;;;39.88;36.03;;;;;;;-8.89;100.00;100940.16;5139860;29;20027;-85
2022/12/15 08:02:11;;;;;;;37.70;33.63;;;;;;;-8.84;100.00;100947.63;5141632;29;20043;-85
2022/12/15 08:04:41;;;;;;;41.78;36.20;;;;;;;-9.18;100.00;100892.06;5139109;28;20578;-85
2022/12/15 08:07:12;;;;;;;45.05;37.22;;;;;;;-9.36;100.00;100855.22;5121441;29;20038;-85
2022/12/15 08:09:42;;;;;;;38.85;34.97;;;;;;;-9.17;100.00;100868.41;5120781;29;20112;-84
2022/12/15 08:12:13;;;;;;;39.20;35.40;;;;;;;-9.51;100.00;100820.69;5136169;29;20053;-84
2022/12/15 08:14:44;;;;;;;39.80;35.88;;;;;;;-8.71;100.00;100937.78;5119457;29;20047;-84
2022/12/15 08:17:14;;;;;;;49.42;41.17;;;;;;;-8.66;100.00;100943.47;5118094;29;20027;-84
2022/12/15 08:19:45;;;;;;;38.53;35.05;;;;;;;-8.88;100.00;100926.94;5133755;28;20023;-84
2022/12/15 08:22:15;;;;;;;38.47;34.45;;;;;;;-9.01;100.00;100889.69;5149798;23;20420;-82
2022/12/15 08:24:47;;;;;;;40.00;36.08;;;;;;;-8.56;100.00;100968.72;5118794;28;20027;-82
2022/12/15 08:27:17;;;;;;;37.95;33.72;;;;;;;-8.51;100.00;100976.19;5152832;28;20027;-84
2022/12/15 08:29:47;;;;;;;40.67;35.47;;;;;;;-8.57;100.00;100951.34;5153833;28;20027;-83
2022/12/15 08:32:18;;;;;;;40.38;33.60;;;;;;;-8.82;100.00;100903.84;5152438;28;20026;-82
2022/12/15 08:34:48;;;;;;;43.50;39.10;;;;;;;-8.67;100.00;100913.84;5153825;28;20074;-82
2022/12/15 08:37:18;;;;;;;43.92;39.95;;;;;;;-8.25;100.00;100968.69;5134683;28;20093;-84
2022/12/15 08:39:49;;;;;;;43.55;39.63;;;;;;;-8.28;100.00;100961.91;5135421;28;20584;-81
2022/12/15 08:42:19;;;;;;;41.55;37.60;;;;;;;-8.70;100.00;100901.00;5151776;28;20050;-82
2022/12/15 08:44:50;;;;;;;41.35;37.53;;;;;;;-8.26;100.00;100967.03;5155655;28;20026;-81
2022/12/15 08:47:21;;;;;;;41.78;37.97;;;;;;;-8.15;100.00;100961.69;5134098;28;20143;-84
2022/12/15 08:49:53;;;;;;;40.28;36.45;;;;;;;-8.15;100.00;100955.63;5135557;28;20114;-83
2022/12/15 08:52:23;;;;;;;40.63;36.95;;;;;;;-8.03;100.00;100963.22;5135321;28;20476;-83
2022/12/15 08:54:54;;;;;;;37.85;34.50;;;;;;;-8.01;100.00;100948.22;5152312;28;20094;-81
2022/12/15 08:57:25;;;;;;;43.53;39.22;;;;;;;-7.66;100.00;100996.72;5134545;28;20015;-81
2022/12/15 08:59:55;;;;;;;50.88;39.55;;;;;;;-7.86;100.00;100956.53;5165999;28;20028;-80
2022/12/15 09:02:25;;;;;;;47.15;42.53;;;;;;;-7.54;100.00;100982.53;5171779;28;20061;-79
2022/12/15 09:04:56;;;;;;;43.42;38.92;;;;;;;-7.72;100.00;100943.03;5170550;28;20031;-79
2022/12/15 09:07:26;;;;;;;44.75;40.17;;;;;;;-7.71;100.00;100938.59;5164543;28;20023;-83
2022/12/15 09:09:56;;;;;;;50.20;41.92;;;;;;;-7.31;100.00;100983.91;5136782;28;20086;-82
2022/12/15 09:12:27;;;;;;;48.70;43.60;;;;;;;-7.20;100.00;100993.44;5134901;28;20511;-82
2022/12/15 09:14:57;;;;;;;48.65;44.08;;;;;;;-7.06;100.00;101016.66;5135243;28;20026;-82
2022/12/15 09:17:27;;;;;;;49.55;44.22;;;;;;;-6.96;100.00;101021.91;5152320;28;20043;-84
2022/12/15 09:19:58;;;;;;;46.78;41.95;;;;;;;-6.98;100.00;101006.28;5151689;28;20031;-84
2022/12/15 09:22:30;;;;;;;46.22;40.72;;;;;;;-6.84;100.00;101024.22;5154423;28;20033;-84
2022/12/15 09:25:01;;;;;;;46.47;41.67;;;;;;;-6.96;100.00;101004.38;5133890;28;20026;-81
2022/12/15 09:27:33;;;;;;;48.95;44.35;;;;;;;-6.73;100.00;101036.38;5152902;28;20042;-84
2022/12/15 09:30:05;;;;;;;45.28;40.95;;;;;;;-6.88;100.00;100993.97;5129238;28;20031;-82
2022/12/15 09:32:35;;;;;;;43.88;39.78;;;;;;;-6.84;100.00;101003.22;5130475;28;20031;-81
2022/12/15 09:35:06;;;;;;;42.50;38.30;;;;;;;-6.53;100.00;101048.50;5132004;29;20054;-80
2022/12/15 09:37:36;;;;;;;49.88;44.40;;;;;;;-6.82;100.00;100989.97;5115173;29;20485;-83
2022/12/15 09:40:11;;;;;;;49.95;44.53;;;;;;;-6.57;100.00;101010.38;5131047;29;20031;-83
2022/12/15 09:42:50;;;;;;;49.97;45.38;;;;;;;-6.33;100.00;101045.84;5114864;29;20039;-81
2022/12/15 09:45:30;;;;;;;47.80;43.17;;;;;;;-6.29;100.00;101045.41;5131915;29;20114;-84
2022/12/15 09:48:03;;;;;;;;;;;;;;;-6.19;100.00;101050.66;5132142;29;20038;-83
2022/12/15 09:50:37;;;;;;;45.30;40.30;;;;;;;-6.14;100.00;101049.25;5131400;28;19917;-83
2022/12/15 09:53:14;;;;;;;45.17;41.13;;;;;;;-6.03;100.00;101056.13;5131287;29;20031;-83
2022/12/15 09:55:51;;;;;;;44.45;39.17;;;;;;;-6.22;100.00;101019.41;5131129;29;20078;-80
2022/12/15 09:58:39;;;;;;;46.53;41.90;;;;;;;-5.95;100.00;101064.13;5131137;29;20057;-82
2022/12/15 10:01:37;;;;;;;45.13;40.70;;;;;;;-5.87;100.00;101058.94;5113500;29;20031;-82
2022/12/15 10:04:13;;;;;;;49.22;44.70;;;;;;;-5.79;100.00;101048.53;5107688;28;20405;-83
2022/12/15 10:07:00;;;;;;;46.15;41.72;;;;;;;-6.03;100.00;100997.47;5110327;29;20027;-83
2022/12/15 10:09:30;;;;;;;45.60;41.33;;;;;;;-5.97;100.00;101007.41;5112363;29;20023;-83
2022/12/15 10:12:26;;;;;;;49.20;44.30;;;;;;;-5.55;100.00;101055.06;5094133;29;20038;-82
2022/12/15 10:15:15;;;;;;;47.85;43.30;;;;;;;-5.48;100.00;101056.94;5110965;29;20032;-81
2022/12/15 10:17:50;;;;;;;48.65;43.97;;;;;;;-5.63;100.00;101037.38;5112542;29;20042;-80
2022/12/15 10:20:26;;;;;;;46.97;42.35;;;;;;;-5.53;100.00;101050.50;5122382;29;20032;-82
2022/12/15 10:23:01;;;;;;;49.63;44.75;;;;;;;-5.72;100.00;100995.34;5123550;29;20042;-80
2022/12/15 10:25:32;;;;;;;45.33;41.03;;;;;;;-5.29;100.00;101055.19;5123404;29;20027;-80
2022/12/15 10:28:14;;;;;;;46.35;41.78;;;;;;;-5.27;100.00;101056.69;5118890;29;20032;-80
2022/12/15 10:30:57;;;;;;;44.65;40.65;;;;;;;-5.26;100.00;101047.81;5133300;29;20031;-81
2022/12/15 10:33:37;;;;;;;45.95;41.80;;;;;;;-5.21;100.00;101048.22;5119340;29;20095;-82
2022/12/15 10:36:14;;;;;;;49.08;43.85;;;;;;;-5.16;100.00;101042.47;5116471;29;20078;-82
2022/12/15 10:38:46;;;;;;;42.92;38.80;;;;;;;-5.22;100.00;101029.94;5115818;29;20027;-81
2022/12/15 10:41:22;;;;;;;46.45;41.70;;;;;;;-5.17;100.00;101033.75;5103516;28;20022;-78
2022/12/15 10:43:53;;;;;;;47.72;42.47;;;;;;;-5.10;100.00;101039.25;5143100;28;20032;-81
2022/12/15 10:46:26;;;;;;;47.00;42.85;;;;;;;-5.18;100.00;101026.81;5149178;28;20046;-81
2022/12/15 10:49:18;;;;;;;47.33;42.83;;;;;;;-5.42;100.00;100989.75;5149385;28;20059;-82
2022/12/15 10:51:59;;;;;;;44.10;39.97;;;;;;;-5.06;100.00;101034.50;5146695;28;20050;-79
2022/12/15 10:54:35;;;;;;;45.22;41.40;;;;;;;-5.02;100.00;101036.69;5117607;29;20031;-81
2022/12/15 10:57:18;;;;;;;41.95;38.10;;;;;;;-4.95;100.00;101037.75;5116333;29;20099;-81
2022/12/15 10:59:49;;;;;;;49.97;42.40;;;;;;;-5.02;100.00;101035.88;5136813;28;20027;-80
2022/12/15 11:02:19;;;;;;;47.85;40.40;;;;;;;-4.79;100.00;101061.59;5137320;28;20031;-85
2022/12/15 11:04:59;;;;;;;48.20;43.38;;;;;;;-4.69;100.00;101052.78;5117460;29;20065;-84
2022/12/15 11:07:42;;;;;;;45.92;41.60;;;;;;;-4.65;100.00;101049.69;5132577;29;20031;-85
2022/12/15 11:13:23;;;;;;;43.83;38.55;;;;;;;-4.49;100.00;101048.97;5134784;29;20050;-83
2022/12/15 11:15:55;;;;;;;50.10;45.58;;;;;;;-4.42;100.00;101044.75;5133350;29;20086;-85
2022/12/15 11:18:36;;;;;;;45.65;41.15;;;;;;;-4.36;100.00;101041.50;5133454;29;20016;-83
2022/12/15 11:21:12;;;;;;;46.35;41.97;;;;;;;-4.27;100.00;101042.38;5133603;29;20024;-82
2022/12/15 11:24:08;;;;;;;43.35;39.28;;;;;;;-4.25;100.00;101035.13;5131803;29;20121;-84
2022/12/15 11:26:41;;;;;;;42.10;38.40;;;;;;;-4.17;100.00;101043.91;5131911;29;20035;-84
2022/12/15 11:29:44;;;;;;;50.35;45.25;;;;;;;-4.08;100.00;101044.81;5114818;29;20035;-80
2022/12/15 11:32:19;;;;;;;46.50;41.83;;;;;;;-3.97;100.00;101038.41;5082977;29;20066;-83
2022/12/15 11:34:50;;;;;;;50.95;46.30;;;;;;;-3.90;100.00;101034.16;5115077;28;20031;-82
2022/12/15 11:37:42;;;;;;;51.30;46.35;;;;;;;-3.92;100.00;101026.41;5115277;29;20026;-82
2022/12/15 11:40:39;;;;;;;50.65;45.53;;;;;;;-3.76;100.00;101036.22;5115143;29;20027;-84
2022/12/15 11:43:28;;;;;;;49.00;44.63;;;;;;;-3.71;100.00;101038.38;5126479;29;20501;-82
2022/12/15 11:46:08;;;;;;;48.53;43.83;;;;;;;-3.69;100.00;101031.13;5134056;28;20417;-86
2022/12/15 11:48:41;;;;;;;47.05;42.55;;;;;;;-3.67;100.00;101021.22;5120848;28;20406;-83
2022/12/15 11:52:02;;;;;;;42.38;38.65;;;;;;;-3.87;100.00;100983.72;5115027;29;20031;-86
2022/12/15 11:54:58;;;;;;;46.30;42.13;;;;;;;-3.58;100.00;101013.19;5098238;29;20024;-85
2022/12/15 11:57:53;;;;;;;49.40;44.25;;;;;;;-3.45;100.00;101012.72;5114719;29;20031;-83
2022/12/15 12:00:24;;;;;;;49.22;44.30;;;;;;;-3.38;100.00;101012.91;5113562;29;20023;-85
2022/12/15 12:02:57;;;;;;;44.17;39.80;;;;;;;-3.32;100.00;101018.38;5114883;29;20034;-86
2022/12/15 12:05:54;;;;;;;43.92;39.80;;;;;;;-3.21;100.00;101014.59;5114056;29;20024;-85
2022/12/15 12:09:04;;;;;;;45.13;40.60;;;;;;;-3.09;100.00;101013.28;5113557;29;20107;-86
2022/12/15 12:12:01;;;;;;;51.25;46.45;;;;;;;-3.74;100.00;100894.38;5111036;29;20482;-86
2022/12/15 12:15:00;;;;;;;49.75;45.10;;;;;;;-2.91;100.00;101000.75;5112519;29;20039;-84
2022/12/15 12:17:52;;;;;;;46.60;42.08;;;;;;;-2.96;100.00;100981.94;5113055;29;20047;-85
2022/12/15 12:20:47;;;;;;;46.13;41.80;;;;;;;-2.75;100.00;100992.00;5112747;29;20038;-85
2022/12/15 12:23:33;;;;;;;46.08;40.58;;;;;;;-2.72;100.00;101000.41;5111904;29;20099;-86
2022/12/15 12:26:14;;;;;;;52.42;41.97;;;;;;;-2.67;100.00;100993.81;5112423;29;20036;-83
2022/12/15 12:28:53;;;;;;;49.67;45.25;;;;;;;-2.79;100.00;100967.72;5111024;29;20028;-85
2022/12/15 12:31:49;;;;;;;48.50;44.00;;;;;;;-2.51;100.00;100989.31;5111849;29;20036;-86
2022/12/15 12:34:34;;;;;;;49.55;44.78;;;;;;;-2.62;100.00;100950.03;5111423;29;20058;-85
2022/12/15 12:37:34;;;;;;;48.28;43.45;;;;;;;-2.34;100.00;100990.13;5113995;29;20499;-82
2022/12/15 12:40:25;;;;;;;;;;;;;;;-2.23;100.00;100979.16;5110532;29;20071;-84
2022/12/15 12:42:59;;;;;;;48.75;44.15;;;;;;;-2.15;100.00;100976.50;5108802;29;20381;-83
2022/12/15 12:45:48;;;;;;;45.55;41.33;;;;;;;-2.30;100.00;100949.09;5110972;29;20042;-83
2022/12/15 12:48:27;;;;;;;46.58;41.92;;;;;;;-2.05;100.00;100984.25;5110429;29;20024;-83
2022/12/15 12:51:30;;;;;;;43.75;39.60;;;;;;;-1.99;100.00;100969.50;5112379;29;20030;-82
2022/12/15 12:54:01;;;;;;;47.60;41.35;;;;;;;-2.01;100.00;100952.97;5112254;29;20027;-86
2022/12/15 12:56:44;;;;;;;44.90;40.58;;;;;;;-2.05;100.00;100932.16;5111278;29;20032;-84
2022/12/15 12:59:29;;;;;;;43.33;39.38;;;;;;;-1.84;100.00;100958.03;5112548;29;20027;-87
2022/12/15 13:02:24;;;;;;;47.67;42.80;;;;;;;-1.80;100.00;100954.03;5111725;29;20074;-81
2022/12/15 13:05:22;;;;;;;43.35;38.78;;;;;;;-1.72;100.00;100945.22;5112501;29;20024;-85
2022/12/15 13:07:54;;;;;;;45.70;41.60;;;;;;;-1.69;100.00;100950.16;5113739;29;20028;-83
2022/12/15 13:10:24;;;;;;;44.50;40.17;;;;;;;-1.82;100.00;100918.16;5115543;29;20072;-83
2022/12/15 13:12:58;;;;;;;43.33;39.88;;;;;;;-1.66;100.00;100928.63;5115828;29;20043;-85
2022/12/15 13:15:34;;;;;;;45.88;41.10;;;;;;;-1.53;100.00;100947.44;5115381;29;20024;-85
2022/12/15 13:18:06;;;;;;;40.38;36.90;;;;;;;-1.50;100.00;100949.75;5116551;29;20020;-85
2022/12/15 13:20:37;;;;;;;43.55;39.50;;;;;;;-1.51;100.00;100942.78;5116862;29;20483;-85
2022/12/15 13:23:20;;;;;;;43.50;39.17;;;;;;;-1.44;100.00;100933.13;5116376;29;20039;-86
2022/12/15 13:25:56;;;;;;;42.05;38.10;;;;;;;-1.40;100.00;100928.28;5144100;28;20031;-85
2022/12/15 13:29:01;;;;;;;46.05;41.70;;;;;;;-1.31;100.00;100935.19;5138216;28;20031;-83
2022/12/15 13:31:37;;;;;;;47.28;40.95;;;;;;;-1.24;100.00;100930.84;5155051;28;20041;-83
2022/12/15 13:34:13;;;;;;;42.75;37.10;;;;;;;-1.16;100.00;100925.50;5154216;28;20077;-85
2022/12/15 13:36:45;;;;;;;43.17;39.42;;;;;;;-1.29;100.00;100887.34;5154015;28;20318;-85
2022/12/15 13:39:15;;;;;;;44.38;39.78;;;;;;;-1.06;100.00;100915.44;5154691;28;20027;-84
2022/12/15 13:41:46;;;;;;;40.53;36.92;;;;;;;-1.01;100.00;100912.25;5157017;28;20031;-83
2022/12/15 13:44:30;;;;;;;47.67;42.60;;;;;;;-1.24;100.00;100858.50;5155446;28;20481;-84
2022/12/15 13:47:11;;;;;;;42.35;38.58;;;;;;;-0.90;100.00;100900.41;5155154;28;20386;-85
2022/12/15 13:50:07;;;;;;;42.70;38.25;;;;;;;-0.79;100.00;100911.38;5139206;28;20027;-85
2022/12/15 13:52:50;;;;;;;42.00;37.92;;;;;;;-0.74;100.00;100903.72;5138090;28;20037;-84
2022/12/15 13:55:26;;;;;;;41.17;37.45;;;;;;;-0.75;100.00;100906.56;5155507;28;20481;-82
2022/12/15 13:58:05;;;;;;;42.92;38.38;;;;;;;-0.89;100.00;100879.03;5136489;28;20029;-82
2022/12/15 14:00:37;;;;;;;40.85;37.10;;;;;;;-0.75;100.00;100899.41;5154862;28;20095;-84
2022/12/15 14:03:11;;;;;;;44.33;39.88;;;;;;;-0.87;100.00;100877.03;5138876;28;20470;-84